Koszta, Iowa
Current Conditions -  °F | °C
As of 4:35 AM on Monday 22 Dec 2014 (Local Time) from KVTI Reporting Station
Haze Haze  
Wind Chill: 30°   Ceiling: 4500
Heat Index: 38°   Visibility: 5mi
Dew Point: 34°   Wind: 10mph
Humidity: 87%   Direction: 150°SSE
Pressure: 29.75"   Gusts: NA
Location:  41.9061°N, 92.1836°W
Report Text: KVTI 221035Z AUTO 15009KT 5SM BR BKN045 03/01 A2975 RMK AO2 T00310012
Loading
Personal Weather Stations






























Interactive Weather Map New forecast layout! Learn more

10-Day Weather Forecast

Advertisements
Track Severe Weather on mobile